Oradea, Romania
Current Conditions -  °F | °C
As of 4:00 PM on Thursday 23 Oct 2014 (Local Time) from LROD Reporting Station
Broken Clouds Broken Clouds  
Wind Chill: 43°   Ceiling: 4400
Heat Index: 48°   Visibility: 6mi
Dew Point: 46°   Wind: 14mph
Humidity: 93%   Direction: 30°NNE
Pressure: 29.68"   Gusts: NA
Location:  47.07°N, 21.92°E
Report Text: LROD 231300Z 03012KT 9999 SCT010 BKN044 09/08 Q1005
Loading
Personal Weather Stations






























Interactive Weather Map
Tropical Storm Tracking
New forecast layout! Learn more

10-Day Weather Forecast

Advertisements
Track Severe Weather on mobile